createdAt,value
2023-05-08T00:00:20.323Z,9.96
2023-05-08T00:01:24.562Z,9.96
2023-05-08T00:02:28.479Z,9.99
2023-05-08T00:03:32.577Z,9.98
2023-05-08T00:04:36.476Z,9.93
2023-05-08T00:05:41.925Z,9.84
2023-05-08T00:06:45.208Z,9.81
2023-05-08T00:07:52.279Z,9.80
2023-05-08T00:08:57.706Z,9.70
2023-05-08T00:10:01.786Z,9.76
2023-05-08T00:11:05.501Z,9.73
2023-05-08T00:12:08.678Z,9.64
2023-05-08T00:13:11.387Z,9.62
2023-05-08T00:14:13.929Z,9.80
2023-05-08T00:15:17.209Z,9.82
2023-05-08T00:16:19.504Z,9.74
2023-05-08T00:17:22.999Z,9.68
2023-05-08T00:18:27.214Z,9.71
2023-05-08T00:19:30.645Z,9.69
2023-05-08T00:20:35.385Z,9.80
2023-05-08T00:21:39.466Z,9.70
2023-05-08T00:22:45.311Z,9.74
2023-05-08T00:23:49.127Z,9.81
2023-05-08T00:24:53.714Z,9.86
2023-05-08T00:25:57.301Z,9.79
2023-05-08T00:27:00.802Z,9.79
2023-05-08T00:28:05.044Z,9.84
2023-05-08T00:29:08.580Z,9.84
2023-05-08T00:30:12.700Z,9.91
2023-05-08T00:31:17.436Z,9.80
2023-05-08T00:32:19.848Z,9.81
2023-05-08T00:33:23.299Z,9.85
2023-05-08T00:34:27.313Z,9.91
2023-05-08T00:35:30.091Z,9.93
2023-05-08T00:36:34.117Z,9.95
2023-05-08T00:37:40.854Z,9.95
2023-05-08T00:38:44.260Z,9.96
2023-05-08T00:39:48.186Z,9.98
2023-05-08T00:40:51.582Z,9.93
2023-05-08T00:41:56.233Z,9.88
2023-05-08T00:43:00.671Z,9.76
2023-05-08T00:44:03.990Z,9.82
2023-05-08T00:45:10.074Z,9.89
2023-05-08T00:46:14.746Z,9.85
2023-05-08T00:47:22.985Z,9.79
2023-05-08T00:48:29.729Z,9.88
2023-05-08T00:49:36.548Z,10.00
2023-05-08T00:50:40.570Z,9.93
2023-05-08T00:51:45.119Z,9.88
2023-05-08T00:52:48.513Z,10.01
2023-05-08T00:53:52.222Z,10.18
2023-05-08T00:54:55.117Z,10.03
2023-05-08T00:56:01.492Z,9.97
2023-05-08T00:57:07.261Z,10.04
2023-05-08T00:58:11.049Z,10.03
2023-05-08T00:59:15.303Z,10.05
2023-05-08T01:00:18.486Z,9.99
2023-05-08T01:01:23.381Z,10.12
2023-05-08T01:02:26.983Z,10.18
2023-05-08T01:03:31.621Z,10.25
2023-05-08T01:04:35.794Z,10.23
2023-05-08T01:05:38.583Z,10.19
2023-05-08T01:06:42.259Z,10.16
2023-05-08T01:07:46.041Z,10.15
2023-05-08T01:08:49.453Z,10.14
2023-05-08T01:09:53.226Z,10.06
2023-05-08T01:11:01.067Z,10.10
2023-05-08T01:12:10.850Z,10.13
2023-05-08T01:13:22.394Z,10.06
2023-05-08T01:14:27.858Z,10.02
2023-05-08T01:15:32.952Z,10.10
2023-05-08T01:16:39.353Z,10.14
2023-05-08T01:17:44.953Z,9.99
2023-05-08T01:18:57.976Z,9.99
2023-05-08T01:20:12.211Z,9.86
2023-05-08T01:21:21.696Z,9.94
2023-05-08T01:22:27.079Z,10.00
2023-05-08T01:23:37.061Z,10.05
2023-05-08T01:24:48.112Z,9.77
2023-05-08T01:26:05.163Z,9.77
2023-05-08T01:27:13.157Z,9.84
2023-05-08T01:28:35.047Z,9.84
2023-05-08T01:30:00.321Z,9.81
2023-05-08T01:31:05.783Z,9.92
2023-05-08T01:32:16.895Z,9.90
2023-05-08T01:33:28.145Z,9.87
2023-05-08T01:34:32.368Z,9.81
2023-05-08T01:35:53.530Z,9.78
2023-05-08T01:37:00.275Z,9.82
2023-05-08T01:38:08.265Z,9.76
2023-05-08T01:39:31.004Z,9.73
2023-05-08T01:40:35.237Z,9.67
2023-05-08T01:41:39.674Z,9.62
2023-05-08T01:42:45.967Z,9.68
2023-05-08T01:43:51.282Z,9.66
2023-05-08T01:45:03.138Z,9.68
2023-05-08T01:46:10.719Z,9.76
2023-05-08T01:47:16.465Z,9.71
2023-05-08T01:48:33.808Z,9.62
2023-05-08T01:49:49.287Z,9.57
2023-05-08T01:50:57.891Z,9.55
2023-05-08T01:52:04.178Z,9.53
2023-05-08T01:53:10.400Z,9.49
2023-05-08T01:54:18.145Z,9.49
2023-05-08T01:55:30.675Z,9.48
2023-05-08T01:56:35.320Z,9.52
2023-05-08T01:57:42.385Z,9.47
2023-05-08T01:58:48.424Z,9.50
2023-05-08T01:59:53.664Z,9.43
2023-05-08T02:00:58.176Z,9.52
2023-05-08T02:02:03.187Z,9.41
2023-05-08T02:03:07.478Z,9.32
2023-05-08T02:04:12.309Z,9.41
2023-05-08T02:06:33.068Z,9.53
2023-05-08T02:07:40.027Z,9.46
2023-05-08T02:08:45.517Z,9.46
2023-05-08T02:09:49.149Z,9.50
2023-05-08T02:10:51.803Z,9.44
2023-05-08T02:11:57.518Z,9.37
2023-05-08T02:13:03.020Z,9.48
2023-05-08T02:14:10.699Z,9.51
2023-05-08T02:15:14.705Z,9.34
2023-05-08T02:16:22.824Z,9.32
2023-05-08T02:17:26.539Z,9.35
2023-05-08T02:18:33.759Z,9.38
2023-05-08T02:19:38.008Z,9.45
2023-05-08T02:20:42.357Z,9.40
2023-05-08T02:21:47.330Z,9.45
2023-05-08T02:22:51.478Z,9.47
2023-05-08T02:23:58.526Z,9.37
2023-05-08T02:25:02.019Z,9.43
2023-05-08T02:26:05.837Z,9.38
2023-05-08T02:27:13.517Z,9.42
2023-05-08T02:28:18.269Z,9.47
2023-05-08T02:29:23.253Z,9.56
2023-05-08T02:30:27.278Z,9.60
2023-05-08T02:31:30.812Z,9.58
2023-05-08T02:32:35.860Z,9.49
2023-05-08T02:33:40.612Z,9.56
2023-05-08T02:34:54.870Z,9.46
2023-05-08T02:35:51.586Z,9.50
2023-05-08T02:36:55.450Z,9.54
2023-05-08T02:37:59.439Z,9.73
2023-05-08T02:39:04.921Z,9.65
2023-05-08T02:40:10.130Z,9.62
2023-05-08T02:41:15.880Z,9.69
2023-05-08T02:42:19.809Z,9.64
2023-05-08T02:43:24.685Z,9.73
2023-05-08T02:44:28.405Z,9.78
2023-05-08T02:45:36.603Z,9.78
2023-05-08T02:47:00.474Z,9.84
2023-05-08T02:48:11.485Z,9.69
2023-05-08T02:49:36.826Z,9.63
2023-05-08T02:50:57.501Z,9.72
2023-05-08T02:52:01.812Z,9.66
2023-05-08T02:53:07.725Z,9.68
2023-05-08T02:54:12.874Z,9.60
2023-05-08T02:55:23.947Z,9.55
2023-05-08T02:56:31.711Z,9.55
2023-05-08T02:57:56.109Z,9.40
2023-05-08T02:59:04.941Z,9.51
2023-05-08T03:00:19.506Z,9.47
2023-05-08T03:01:27.820Z,9.49
2023-05-08T03:02:40.487Z,9.41
2023-05-08T03:03:45.185Z,9.52
2023-05-08T03:04:50.751Z,9.59
2023-05-08T03:05:58.405Z,9.58
2023-05-08T03:07:03.820Z,9.59
2023-05-08T03:08:12.138Z,9.50
2023-05-08T03:09:17.932Z,9.43
2023-05-08T03:10:22.908Z,9.53
2023-05-08T03:11:28.194Z,9.57
2023-05-08T03:12:33.573Z,9.55
2023-05-08T03:13:39.060Z,9.50
2023-05-08T03:14:47.516Z,9.63
2023-05-08T03:15:58.957Z,9.65
2023-05-08T03:17:05.035Z,9.66
2023-05-08T03:18:09.580Z,9.73
2023-05-08T03:19:20.868Z,9.58
2023-05-08T03:20:27.601Z,9.70
2023-05-08T03:21:32.530Z,9.77
2023-05-08T03:22:38.590Z,9.72
2023-05-08T03:23:43.310Z,9.72
2023-05-08T03:24:47.735Z,9.72
2023-05-08T03:25:52.382Z,9.81
2023-05-08T03:26:57.782Z,9.84
2023-05-08T03:28:02.703Z,9.78
2023-05-08T03:29:08.135Z,9.85
2023-05-08T03:30:12.823Z,10.02
2023-05-08T03:31:18.745Z,10.04
2023-05-08T03:32:21.702Z,10.04
2023-05-08T03:33:28.286Z,10.03
2023-05-08T03:34:32.986Z,10.02
2023-05-08T03:35:40.878Z,10.05
2023-05-08T03:36:46.663Z,10.15
2023-05-08T03:37:51.849Z,10.05
2023-05-08T03:38:58.720Z,10.06
2023-05-08T03:40:02.504Z,10.14
2023-05-08T03:41:06.639Z,10.11
2023-05-08T03:42:10.238Z,10.05
2023-05-08T03:43:13.542Z,10.07
2023-05-08T03:44:18.837Z,9.95
2023-05-08T03:45:22.542Z,10.05
2023-05-08T03:46:27.330Z,10.11
2023-05-08T03:47:32.691Z,10.08
2023-05-08T03:48:37.026Z,10.19
2023-05-08T03:49:42.961Z,10.07
2023-05-08T03:50:45.705Z,10.05
2023-05-08T03:51:50.666Z,10.11
2023-05-08T03:52:55.089Z,10.13
2023-05-08T03:53:58.617Z,10.14
2023-05-08T03:55:01.497Z,10.21
2023-05-08T03:56:06.523Z,10.19
2023-05-08T03:57:11.754Z,10.14
2023-05-08T03:58:17.880Z,10.18
2023-05-08T03:59:30.762Z,10.22
2023-05-08T04:00:48.384Z,10.42
2023-05-08T04:02:02.778Z,10.45
2023-05-08T04:03:08.004Z,10.61
2023-05-08T04:04:33.590Z,10.47
2023-05-08T04:05:40.778Z,10.42
2023-05-08T04:06:54.874Z,10.42
2023-05-08T04:08:01.105Z,10.34
2023-05-08T04:09:23.809Z,10.27
2023-05-08T04:10:36.523Z,10.06
2023-05-08T04:11:44.426Z,10.43
2023-05-08T04:12:50.295Z,10.33
2023-05-08T04:13:55.926Z,10.26
2023-05-08T04:15:00.337Z,10.51
2023-05-08T04:16:10.617Z,10.40
2023-05-08T04:17:16.673Z,10.21
2023-05-08T04:18:22.010Z,10.42
2023-05-08T04:19:28.434Z,10.36
2023-05-08T04:20:32.984Z,10.45
2023-05-08T04:21:37.574Z,10.76
2023-05-08T04:22:41.737Z,10.96
2023-05-08T04:23:48.885Z,11.03
2023-05-08T04:24:54.314Z,10.80
2023-05-08T04:25:58.022Z,11.05
2023-05-08T04:27:06.449Z,10.91
2023-05-08T04:28:12.755Z,10.81
2023-05-08T04:29:18.403Z,10.57
2023-05-08T04:30:24.739Z,10.88
2023-05-08T04:31:27.875Z,10.91
2023-05-08T04:32:32.112Z,11.03
2023-05-08T04:33:36.250Z,10.97
2023-05-08T04:34:40.970Z,10.88
2023-05-08T04:35:46.534Z,11.12
2023-05-08T04:36:52.752Z,11.32
2023-05-08T04:37:57.316Z,11.38
2023-05-08T04:39:00.832Z,11.30
2023-05-08T04:40:06.722Z,11.20
2023-05-08T04:41:12.873Z,11.50
2023-05-08T04:42:17.192Z,11.40
2023-05-08T04:43:20.913Z,11.46
2023-05-08T04:44:25.562Z,11.49
2023-05-08T04:45:29.171Z,11.29
2023-05-08T04:46:32.469Z,11.20
2023-05-08T04:47:36.095Z,11.38
2023-05-08T04:48:39.079Z,11.41
2023-05-08T04:49:44.372Z,11.44
2023-05-08T04:50:48.157Z,11.41
2023-05-08T04:51:52.826Z,11.59
2023-05-08T04:52:56.839Z,11.37
2023-05-08T04:54:00.350Z,11.44
2023-05-08T04:55:03.545Z,11.51
2023-05-08T04:56:09.224Z,11.43
2023-05-08T04:57:12.859Z,11.76
2023-05-08T04:58:17.910Z,11.77
2023-05-08T04:59:21.007Z,11.71
2023-05-08T05:00:26.287Z,11.87
2023-05-08T05:01:29.942Z,12.04
2023-05-08T05:02:33.405Z,12.10
2023-05-08T05:03:37.488Z,12.08
2023-05-08T05:04:40.508Z,11.88
2023-05-08T05:05:44.011Z,11.73
2023-05-08T05:06:47.720Z,11.77
2023-05-08T05:07:50.479Z,12.03
2023-05-08T05:08:56.938Z,12.04
2023-05-08T05:10:01.099Z,12.11
2023-05-08T05:11:04.359Z,12.13
2023-05-08T05:12:10.088Z,11.94
2023-05-08T05:13:12.979Z,12.14
2023-05-08T05:14:17.525Z,11.94
2023-05-08T05:15:21.509Z,11.71
2023-05-08T05:16:26.016Z,11.89
2023-05-08T05:17:31.311Z,12.03
2023-05-08T05:18:34.003Z,12.07
2023-05-08T05:19:39.179Z,12.22
2023-05-08T05:20:44.049Z,12.17
2023-05-08T05:21:48.282Z,12.26
2023-05-08T05:22:51.901Z,12.30
2023-05-08T05:23:55.401Z,12.59
2023-05-08T05:24:58.689Z,12.85
2023-05-08T05:26:03.663Z,12.72
2023-05-08T05:27:07.386Z,12.90
2023-05-08T05:28:11.192Z,12.89
2023-05-08T05:29:16.159Z,12.82
2023-05-08T05:30:19.872Z,12.86
2023-05-08T05:31:23.419Z,12.77
2023-05-08T05:32:28.103Z,12.76
2023-05-08T05:33:30.385Z,12.89
2023-05-08T05:34:33.996Z,13.10
2023-05-08T05:35:38.233Z,13.01
2023-05-08T05:36:41.411Z,13.09
2023-05-08T05:37:44.586Z,13.39
2023-05-08T05:38:48.537Z,13.73
2023-05-08T05:39:52.360Z,13.45
2023-05-08T05:40:55.841Z,13.21
2023-05-08T05:42:00.620Z,13.34
2023-05-08T05:43:04.649Z,13.52
2023-05-08T05:44:09.047Z,13.69
2023-05-08T05:45:13.384Z,13.95
2023-05-08T05:46:17.157Z,14.01
2023-05-08T05:47:20.433Z,14.20
2023-05-08T05:48:24.153Z,14.50
2023-05-08T05:49:28.198Z,14.67
2023-05-08T05:50:31.991Z,14.93
2023-05-08T05:51:37.282Z,14.90
2023-05-08T05:52:40.786Z,15.19
2023-05-08T05:53:46.245Z,15.21
2023-05-08T05:54:49.664Z,14.82
2023-05-08T05:55:54.012Z,15.07
2023-05-08T05:56:58.328Z,15.44
2023-05-08T05:58:02.058Z,15.39
2023-05-08T05:59:05.884Z,15.08
2023-05-08T06:00:11.870Z,15.01
2023-05-08T06:01:17.942Z,15.51
2023-05-08T06:02:21.700Z,15.94
2023-05-08T06:03:25.504Z,15.75
2023-05-08T06:04:30.805Z,15.65
2023-05-08T06:05:36.532Z,15.91
2023-05-08T06:06:42.047Z,16.26
2023-05-08T06:07:45.277Z,16.63
2023-05-08T06:08:49.235Z,16.92
2023-05-08T06:09:56.012Z,17.30
2023-05-08T06:11:01.248Z,17.28
2023-05-08T06:12:04.977Z,16.90
2023-05-08T06:13:10.265Z,17.03
2023-05-08T06:14:13.743Z,16.99
2023-05-08T06:15:26.982Z,17.28
2023-05-08T06:16:33.323Z,17.11
2023-05-08T06:17:36.824Z,17.45
2023-05-08T06:18:40.190Z,17.81
2023-05-08T06:19:43.618Z,17.90
2023-05-08T06:20:50.067Z,17.66
2023-05-08T06:21:54.284Z,18.50
2023-05-08T06:22:57.674Z,18.83
2023-05-08T06:24:01.376Z,19.21
2023-05-08T06:25:07.792Z,18.95
2023-05-08T06:26:11.110Z,19.13
2023-05-08T06:27:13.699Z,19.38
2023-05-08T06:28:16.969Z,19.04
2023-05-08T06:29:20.791Z,19.17
2023-05-08T06:30:24.058Z,19.05
2023-05-08T06:31:28.034Z,18.62
2023-05-08T06:32:32.359Z,18.18
2023-05-08T06:33:35.961Z,18.61
2023-05-08T06:34:38.419Z,18.77
2023-05-08T06:35:41.881Z,18.87
2023-05-08T06:36:45.296Z,19.45
2023-05-08T06:37:48.833Z,19.97
2023-05-08T06:38:52.119Z,19.65
2023-05-08T06:40:10.264Z,19.67
2023-05-08T06:41:03.259Z,19.59
2023-05-08T06:42:08.500Z,19.59
2023-05-08T06:43:15.348Z,20.31
2023-05-08T06:44:18.943Z,20.88
2023-05-08T06:45:25.727Z,20.92
2023-05-08T06:46:30.396Z,20.96
2023-05-08T06:47:33.977Z,21.46
2023-05-08T06:48:37.252Z,21.15
2023-05-08T06:49:40.539Z,21.35
2023-05-08T06:50:44.159Z,21.59
2023-05-08T06:51:46.829Z,20.93
2023-05-08T06:52:50.221Z,21.24
2023-05-08T06:53:54.043Z,21.23
2023-05-08T06:54:59.428Z,21.76
2023-05-08T06:56:02.842Z,22.06
2023-05-08T06:57:06.964Z,22.36
2023-05-08T06:58:11.777Z,22.61
2023-05-08T06:59:16.472Z,23.33
2023-05-08T07:00:20.138Z,23.34
2023-05-08T07:01:23.535Z,22.82
2023-05-08T07:02:27.015Z,22.15
2023-05-08T07:03:30.409Z,21.48
2023-05-08T07:04:33.902Z,21.97
2023-05-08T07:05:37.321Z,21.75
2023-05-08T07:06:40.803Z,23.15
2023-05-08T07:07:43.900Z,24.02
2023-05-08T07:08:47.512Z,24.93
2023-05-08T07:09:51.012Z,25.60
2023-05-08T07:10:53.251Z,25.37
2023-05-08T07:11:58.751Z,25.50
2023-05-08T07:13:02.091Z,25.58
2023-05-08T07:14:05.763Z,25.89
2023-05-08T07:15:24.148Z,25.37
2023-05-08T07:16:16.962Z,25.33
2023-05-08T07:17:19.616Z,25.02
2023-05-08T07:18:22.861Z,24.54
2023-05-08T07:19:26.217Z,24.93
2023-05-08T07:20:29.717Z,25.17
2023-05-08T07:21:33.008Z,24.96
2023-05-08T07:22:37.236Z,25.21
2023-05-08T07:23:40.751Z,25.64
2023-05-08T07:24:44.141Z,26.75
2023-05-08T07:25:46.393Z,27.01
2023-05-08T07:26:49.698Z,26.30
2023-05-08T07:27:52.986Z,25.71
2023-05-08T07:28:56.493Z,26.23
2023-05-08T07:30:02.969Z,25.44
2023-05-08T07:31:08.116Z,24.72
2023-05-08T07:32:11.715Z,24.18
2023-05-08T07:33:15.307Z,24.33
2023-05-08T07:34:18.980Z,24.76
2023-05-08T07:35:22.655Z,24.97
2023-05-08T07:36:26.198Z,25.28
2023-05-08T07:37:31.080Z,25.01
2023-05-08T07:38:39.163Z,25.11
2023-05-08T07:39:42.510Z,25.06
2023-05-08T07:40:45.914Z,25.44
2023-05-08T07:41:50.850Z,25.54
2023-05-08T07:42:55.412Z,25.40
2023-05-08T07:44:02.299Z,25.50
2023-05-08T07:45:06.076Z,25.44
2023-05-08T07:46:12.725Z,24.74
2023-05-08T07:47:17.723Z,24.46
2023-05-08T07:48:23.128Z,24.25
2023-05-08T07:49:26.795Z,23.34
2023-05-08T07:50:30.189Z,22.64
2023-05-08T07:51:35.422Z,22.12
2023-05-08T07:52:39.825Z,21.95
2023-05-08T07:53:43.321Z,22.26
2023-05-08T07:54:47.542Z,22.86
2023-05-08T07:55:50.846Z,22.38
2023-05-08T07:56:54.457Z,21.83
2023-05-08T07:58:00.108Z,21.69
2023-05-08T07:59:04.600Z,22.26
2023-05-08T08:01:20.811Z,21.65
2023-05-08T08:02:24.351Z,21.71
2023-05-08T08:03:28.176Z,22.24
2023-05-08T08:04:32.827Z,22.74
2023-05-08T08:05:39.317Z,22.05
2023-05-08T08:06:42.495Z,22.08
2023-05-08T08:07:45.933Z,21.43
2023-05-08T08:08:54.089Z,19.55
2023-05-08T08:10:00.869Z,20.02
2023-05-08T08:11:05.513Z,19.90
2023-05-08T08:12:10.699Z,20.42
2023-05-08T08:13:14.009Z,21.03
2023-05-08T08:14:18.002Z,21.84
2023-05-08T08:15:23.406Z,22.31
2023-05-08T08:16:27.681Z,21.60
2023-05-08T08:17:31.095Z,21.64
2023-05-08T08:18:38.723Z,21.56
2023-05-08T08:19:42.120Z,21.72
2023-05-08T08:20:45.935Z,22.36
2023-05-08T08:21:52.060Z,21.36
2023-05-08T08:22:55.343Z,20.81
2023-05-08T08:24:00.871Z,20.82
2023-05-08T08:25:04.450Z,20.81
2023-05-08T08:26:07.963Z,21.06
2023-05-08T08:27:11.239Z,21.20
2023-05-08T08:28:13.911Z,21.48
2023-05-08T08:29:19.198Z,21.73
2023-05-08T08:30:22.962Z,21.78
2023-05-08T08:31:29.778Z,22.24
2023-05-08T08:32:33.280Z,22.10
2023-05-08T08:33:36.770Z,22.65
2023-05-08T08:34:40.273Z,23.10
2023-05-08T08:35:44.825Z,22.72
2023-05-08T08:36:48.635Z,23.03
2023-05-08T08:37:52.553Z,22.92
2023-05-08T08:38:55.859Z,23.49
2023-05-08T08:40:00.295Z,22.65
2023-05-08T08:41:03.924Z,21.95
2023-05-08T08:42:06.584Z,21.78
2023-05-08T08:43:09.362Z,21.59
2023-05-08T08:44:11.614Z,21.85
2023-05-08T08:45:14.961Z,21.86
2023-05-08T08:46:21.004Z,21.93
2023-05-08T08:47:25.680Z,22.36
2023-05-08T08:48:29.703Z,22.22
2023-05-08T08:49:36.119Z,22.71
2023-05-08T08:50:41.318Z,23.04
2023-05-08T08:51:46.610Z,23.06
2023-05-08T08:52:50.832Z,22.33
2023-05-08T08:53:55.994Z,20.12
2023-05-08T08:55:01.282Z,19.14
2023-05-08T08:56:07.612Z,18.82
2023-05-08T08:57:12.921Z,19.04
2023-05-08T08:58:20.876Z,19.24
2023-05-08T08:59:27.044Z,18.84
2023-05-08T09:00:32.583Z,19.13
2023-05-08T09:01:36.685Z,19.59
2023-05-08T09:02:41.550Z,19.81
2023-05-08T09:03:47.577Z,20.31
2023-05-08T09:04:50.273Z,20.02
2023-05-08T09:05:55.216Z,20.71
2023-05-08T09:06:58.996Z,20.89
2023-05-08T09:08:01.856Z,21.51
2023-05-08T09:09:05.867Z,21.74
2023-05-08T09:10:14.596Z,21.85
2023-05-08T09:11:17.885Z,21.68
2023-05-08T09:12:20.770Z,21.15
2023-05-08T09:13:24.231Z,21.48
2023-05-08T09:14:27.887Z,21.66
2023-05-08T09:15:37.961Z,21.05
2023-05-08T09:16:40.222Z,19.99
2023-05-08T09:17:43.957Z,19.52
2023-05-08T09:18:48.764Z,19.50
2023-05-08T09:19:53.119Z,19.45
2023-05-08T09:20:57.370Z,18.95
2023-05-08T09:22:01.924Z,18.66
2023-05-08T09:23:07.717Z,18.81
2023-05-08T09:24:12.258Z,18.76
2023-05-08T09:25:16.171Z,18.44
2023-05-08T09:26:32.665Z,18.00
2023-05-08T09:27:38.437Z,18.28
2023-05-08T09:28:42.151Z,18.99
2023-05-08T09:29:49.040Z,18.71
2023-05-08T09:30:53.845Z,18.78
2023-05-08T09:31:58.900Z,19.47
2023-05-08T09:33:03.145Z,20.51
2023-05-08T09:34:07.981Z,21.06
2023-05-08T09:35:12.777Z,21.35
2023-05-08T09:36:19.020Z,21.67
2023-05-08T09:37:22.413Z,20.19
2023-05-08T09:38:43.539Z,19.47
2023-05-08T09:39:48.274Z,19.99
2023-05-08T09:40:53.436Z,19.83
2023-05-08T09:41:59.539Z,19.61
2023-05-08T09:43:20.154Z,19.58
2023-05-08T09:44:23.666Z,18.91
2023-05-08T09:45:28.846Z,18.85
2023-05-08T09:46:36.037Z,18.85
2023-05-08T09:47:41.179Z,18.22
2023-05-08T09:48:46.759Z,19.01
2023-05-08T09:50:04.955Z,19.61
2023-05-08T09:51:11.128Z,20.03
2023-05-08T09:52:16.560Z,20.07
2023-05-08T09:53:22.386Z,20.05
2023-05-08T09:54:26.124Z,19.57
2023-05-08T09:55:31.168Z,19.79
2023-05-08T09:56:39.762Z,19.47
2023-05-08T09:57:53.769Z,19.53
2023-05-08T09:58:57.266Z,19.96
2023-05-08T10:00:08.739Z,20.74
2023-05-08T10:01:31.167Z,20.92
2023-05-08T10:02:36.497Z,20.75
2023-05-08T10:03:51.357Z,20.22
2023-05-08T10:04:54.859Z,20.25
2023-05-08T10:06:03.744Z,20.57
2023-05-08T10:07:09.094Z,20.50
2023-05-08T10:08:19.208Z,20.27
2023-05-08T10:09:27.395Z,19.86
2023-05-08T10:10:31.275Z,19.53
2023-05-08T10:11:34.520Z,19.01
2023-05-08T10:12:38.406Z,18.91
2023-05-08T10:13:41.565Z,18.89
2023-05-08T10:14:46.736Z,19.14
2023-05-08T10:15:52.757Z,19.77
2023-05-08T10:16:55.880Z,19.74
2023-05-08T10:18:06.647Z,19.86
2023-05-08T10:19:10.974Z,19.81
2023-05-08T10:20:15.243Z,19.54
2023-05-08T10:21:18.820Z,19.22
2023-05-08T10:22:24.120Z,18.66
2023-05-08T10:23:28.244Z,18.50
2023-05-08T10:24:35.391Z,18.18
2023-05-08T10:25:40.524Z,18.36
2023-05-08T10:26:53.830Z,18.25
2023-05-08T10:27:59.594Z,17.87
2023-05-08T10:29:06.040Z,17.79
2023-05-08T10:30:11.649Z,17.69
2023-05-08T10:31:16.818Z,17.55
2023-05-08T10:32:24.313Z,17.24
2023-05-08T10:33:32.559Z,17.04
2023-05-08T10:34:37.021Z,17.57
2023-05-08T10:35:42.441Z,18.01
2023-05-08T10:36:49.273Z,18.25
2023-05-08T10:37:53.182Z,18.56
2023-05-08T10:38:57.305Z,18.98
2023-05-08T10:40:02.303Z,18.65
2023-05-08T10:41:06.760Z,19.03
2023-05-08T10:42:09.181Z,18.22
2023-05-08T10:43:12.786Z,18.26
2023-05-08T10:44:17.258Z,18.25
2023-05-08T10:45:20.109Z,18.53
2023-05-08T10:46:26.898Z,18.28
2023-05-08T10:47:51.090Z,18.09
2023-05-08T10:48:58.150Z,17.83
2023-05-08T10:50:03.482Z,17.74
2023-05-08T10:51:07.503Z,17.89
2023-05-08T10:52:20.833Z,17.67
2023-05-08T10:53:28.933Z,17.40
2023-05-08T10:54:36.723Z,17.62
2023-05-08T10:55:40.853Z,17.41
2023-05-08T10:56:44.254Z,17.36
2023-05-08T10:58:07.608Z,17.68
2023-05-08T10:59:14.033Z,17.82
2023-05-08T11:00:17.841Z,17.86
2023-05-08T11:01:23.136Z,17.73
2023-05-08T11:02:29.178Z,17.72
2023-05-08T11:03:33.233Z,17.68
2023-05-08T11:04:37.395Z,17.85
2023-05-08T11:05:48.794Z,18.30
2023-05-08T11:06:53.632Z,18.49
2023-05-08T11:08:00.465Z,18.55
2023-05-08T11:09:04.426Z,18.53
2023-05-08T11:10:11.092Z,18.01
2023-05-08T11:11:23.757Z,17.47
2023-05-08T11:12:28.591Z,17.33
2023-05-08T11:13:35.091Z,17.62
2023-05-08T11:14:40.290Z,17.34
2023-05-08T11:15:46.057Z,17.11
2023-05-08T11:16:57.325Z,17.37
2023-05-08T11:18:04.824Z,17.63
2023-05-08T11:19:18.223Z,17.43
2023-05-08T11:20:23.217Z,17.86
2023-05-08T11:21:30.510Z,18.31
2023-05-08T11:22:35.213Z,18.49
2023-05-08T11:23:38.826Z,18.34
2023-05-08T11:24:49.533Z,17.75
2023-05-08T11:26:13.013Z,17.83
2023-05-08T11:27:15.981Z,17.63
2023-05-08T11:28:19.580Z,17.65
2023-05-08T11:29:22.564Z,17.88
2023-05-08T11:30:38.203Z,17.94
2023-05-08T11:31:56.895Z,17.92
2023-05-08T11:33:06.992Z,18.25
2023-05-08T11:34:12.613Z,18.48
2023-05-08T11:35:17.892Z,17.95
2023-05-08T11:36:26.126Z,18.19
2023-05-08T11:37:31.376Z,18.02
2023-05-08T11:38:36.640Z,17.90
2023-05-08T11:39:40.037Z,17.32
2023-05-08T11:40:57.238Z,17.40
2023-05-08T11:42:19.227Z,17.11
2023-05-08T11:44:43.753Z,17.50
2023-05-08T11:45:48.500Z,17.12
2023-05-08T11:46:56.533Z,17.62
2023-05-08T11:48:03.019Z,17.61
2023-05-08T11:49:07.420Z,17.58
2023-05-08T11:50:11.820Z,17.63
2023-05-08T11:51:17.462Z,17.78
2023-05-08T11:52:21.177Z,17.79
2023-05-08T11:53:24.037Z,17.95
2023-05-08T11:54:28.292Z,17.91
2023-05-08T11:55:31.595Z,17.98
2023-05-08T11:56:36.350Z,17.91
2023-05-08T11:57:40.843Z,17.91
2023-05-08T11:58:44.820Z,17.70
2023-05-08T11:59:50.937Z,17.68
2023-05-08T12:00:57.835Z,17.55
2023-05-08T12:02:08.725Z,17.20
2023-05-08T12:03:08.205Z,16.92
2023-05-08T12:04:14.058Z,16.90
2023-05-08T12:05:19.429Z,17.00
2023-05-08T12:06:24.380Z,17.36
2023-05-08T12:07:30.196Z,17.65
2023-05-08T12:08:39.496Z,17.49
2023-05-08T12:09:43.474Z,17.53
2023-05-08T12:10:49.748Z,17.59
2023-05-08T12:11:54.971Z,17.55
2023-05-08T12:12:58.516Z,17.11
2023-05-08T12:14:01.045Z,17.22
2023-05-08T12:15:07.470Z,17.11
2023-05-08T12:16:11.187Z,16.91
2023-05-08T12:17:15.919Z,16.65
2023-05-08T12:18:20.696Z,16.69
2023-05-08T12:19:24.223Z,16.91
2023-05-08T12:20:32.048Z,17.19
2023-05-08T12:21:35.608Z,17.42
2023-05-08T12:22:39.793Z,17.39
2023-05-08T12:23:45.911Z,17.74
2023-05-08T12:24:49.253Z,17.83
2023-05-08T12:25:56.027Z,18.23
2023-05-08T12:27:02.397Z,18.25
2023-05-08T12:28:09.484Z,18.10
2023-05-08T12:29:12.570Z,18.19
2023-05-08T12:30:15.901Z,17.71
2023-05-08T12:31:20.699Z,17.86
2023-05-08T12:32:24.620Z,17.97
2023-05-08T12:33:28.998Z,17.56
2023-05-08T12:34:31.974Z,17.10
2023-05-08T12:35:35.464Z,17.09
2023-05-08T12:36:37.943Z,16.96
2023-05-08T12:37:42.161Z,16.64
2023-05-08T12:38:46.413Z,16.67
2023-05-08T12:39:50.024Z,16.72
2023-05-08T12:40:55.333Z,16.71
2023-05-08T12:42:00.694Z,16.75
2023-05-08T12:43:04.861Z,16.52
2023-05-08T12:44:18.230Z,16.46
2023-05-08T12:45:22.902Z,16.69
2023-05-08T12:46:29.001Z,16.60
2023-05-08T12:47:32.654Z,16.67
2023-05-08T12:48:36.869Z,16.80
2023-05-08T12:49:39.638Z,16.71
2023-05-08T12:50:44.660Z,16.77
2023-05-08T12:51:48.203Z,16.86
2023-05-08T12:52:52.226Z,16.76
2023-05-08T12:53:54.900Z,16.82
2023-05-08T12:54:58.201Z,17.01
2023-05-08T12:56:03.475Z,16.76
2023-05-08T12:57:10.729Z,16.48
2023-05-08T12:58:15.518Z,16.51
2023-05-08T12:59:21.312Z,16.73
2023-05-08T13:00:29.401Z,16.80
2023-05-08T13:01:32.340Z,16.85
2023-05-08T13:02:41.651Z,17.01
2023-05-08T13:04:56.926Z,16.89
2023-05-08T13:06:02.402Z,16.59
2023-05-08T13:07:06.609Z,16.43
2023-05-08T13:08:13.933Z,16.44
2023-05-08T13:09:21.102Z,16.29
2023-05-08T13:10:26.066Z,16.56
2023-05-08T13:11:33.443Z,16.43
2023-05-08T13:12:36.801Z,16.64
2023-05-08T13:13:40.192Z,16.44
2023-05-08T13:14:44.852Z,16.66
2023-05-08T13:15:49.323Z,16.64
2023-05-08T13:16:55.805Z,16.33
2023-05-08T13:18:19.072Z,16.28
2023-05-08T13:19:22.684Z,16.28
2023-05-08T13:20:28.908Z,16.28
2023-05-08T13:21:31.886Z,16.32
2023-05-08T13:22:38.318Z,16.44
2023-05-08T13:23:42.450Z,16.49
2023-05-08T13:24:50.128Z,16.80
2023-05-08T13:25:53.534Z,17.00
2023-05-08T13:26:58.160Z,17.16
2023-05-08T13:28:02.108Z,17.27
2023-05-08T13:29:05.512Z,17.21
2023-05-08T13:30:11.701Z,17.25
2023-05-08T13:31:14.096Z,17.27
2023-05-08T13:32:17.486Z,17.34
2023-05-08T13:33:20.048Z,17.50
2023-05-08T13:34:23.556Z,17.29
2023-05-08T13:35:28.858Z,17.12
2023-05-08T13:36:32.563Z,16.93
2023-05-08T13:37:38.662Z,16.81
2023-05-08T13:38:45.348Z,16.83
2023-05-08T13:39:49.223Z,16.87
2023-05-08T13:40:55.617Z,16.75
2023-05-08T13:41:58.951Z,16.94
2023-05-08T13:43:02.369Z,16.74
2023-05-08T13:44:05.747Z,16.79
2023-05-08T13:45:12.508Z,16.93
2023-05-08T13:46:16.061Z,16.49
2023-05-08T13:47:19.389Z,16.23
2023-05-08T13:48:22.701Z,16.35
2023-05-08T13:49:28.396Z,16.36
2023-05-08T13:50:31.900Z,16.51
2023-05-08T13:51:34.381Z,16.35
2023-05-08T13:52:38.314Z,16.64
2023-05-08T13:53:41.896Z,16.80
2023-05-08T13:54:47.700Z,16.94
2023-05-08T13:55:51.115Z,16.90
2023-05-08T13:56:54.818Z,16.55
2023-05-08T13:57:59.475Z,16.39
2023-05-08T13:59:06.389Z,16.34
2023-05-08T14:00:10.262Z,16.43
2023-05-08T14:01:25.976Z,16.08
2023-05-08T14:02:18.251Z,16.14
2023-05-08T14:03:22.364Z,16.10
2023-05-08T14:04:26.974Z,16.18
2023-05-08T14:05:30.572Z,16.41
2023-05-08T14:06:35.450Z,16.44
2023-05-08T14:07:44.473Z,16.40
2023-05-08T14:08:50.442Z,16.32
2023-05-08T14:09:53.626Z,16.45
2023-05-08T14:10:56.856Z,16.53
2023-05-08T14:12:02.040Z,16.65
2023-05-08T14:13:04.354Z,16.49
2023-05-08T14:14:07.488Z,16.41
2023-05-08T14:15:12.411Z,16.66
2023-05-08T14:16:16.681Z,16.78